Opglabbeek, Belgium
Current Conditions -  °F | °C
As of 3:55 PM on Friday 31 Oct 2014 (Local Time) from EBBL Reporting Station
Broken Clouds Broken Clouds  
Wind Chill: 66°   Ceiling: 22000
Heat Index: 66°   Visibility: 6mi
Dew Point: 54°   Wind: 7mph
Humidity: 64%   Direction: 210°SSW
Pressure: 30.15"   Gusts: NA
Location:  51.04°N, 5.58°E
Report Text: EBBL 311455Z 21006KT 9999 FEW150 BKN220 19/12 Q1021 BLU BLU
Loading
Personal Weather Stations






























Interactive Weather Map
Tropical Storm Tracking
New forecast layout! Learn more

10-Day Weather Forecast

Advertisements
Track Severe Weather on mobile